Five Points, Tennessee
Current Conditions -  °F | °C
As of 8:53 PM on Thursday 18 Dec 2014 (Local Time) from KMSL Reporting Station
Overcast Overcast  
Wind Chill: 45°   Ceiling: 3900
Heat Index: 45°   Visibility: 10mi
Dew Point: 35°   Wind: 0mph
Humidity: 68%   Direction: NA
Pressure: 30.23"   Gusts: NA
Location:  35.05°N, 87.31°W
Report Text: KMSL 190253Z AUTO 00000KT 10SM OVC039 07/02 A3023 RMK AO2 SLP236 T00720017 51010
Loading
Personal Weather Stations






























Interactive Weather Map New forecast layout! Learn more

10-Day Weather Forecast

Advertisements
Track Severe Weather on mobile